Terminal Aerodrome Forecast
Issued by NWS Wilmington, OH

Current Version | Previous Version | Graphics & Text | Print | Product List | Glossary On
Versions: 1 2 3 4 5 6 7 8 9 10 11 12 13 14 15 16 17 18 19 20 21 22 23 24
000
FTUS41 KILN 010803 AAA
TAFCVG
TAF AMD
KCVG 010803Z 0108/0212 00000KT P6SM SKC
     FM010900 00000KT 4SM BR SKC
      TEMPO 0110/0112 2SM BR
     FM011300 VRB04KT P6SM SKC
     FM011800 26005KT P6SM BKN040
     FM020100 VRB02KT P6SM FEW050=

USA.gov is the U.S. government's official web portal to all federal, state and local government web resources and services.